Time;durP1;ratioP1;P1;durP2;ratioP2;P2;SDS_P1;SDS_P2;PMS_P1;PMS_P2;Temp;Humidity;BMP_temperature;BMP_pressure;BME280_temperature;BME280_humidity;BME280_pressure;Samples;Min_cycle;Max_cycle;Signal;HPM_P1;HPM_P2
2023/03/20 00:02:18;;;;;;;15.43;6.87;;;;;;;9.52;100.00;101030.31;6006110;28;20038;-75
2023/03/20 00:05:20;;;;;;;13.93;5.30;;;;;;;9.54;100.00;101038.97;6006828;28;20633;-74
2023/03/20 00:08:15;;;;;;;14.48;6.25;;;;;;;9.63;100.00;101055.03;6007149;28;20031;-74
2023/03/20 00:11:31;;;;;;;12.95;6.22;;;;;;;9.62;100.00;101048.06;6007108;28;20479;-74
2023/03/20 00:14:27;;;;;;;14.55;6.20;;;;;;;9.57;100.00;101041.34;6006318;28;20110;-73
2023/03/20 00:17:22;;;;;;;15.93;6.57;;;;;;;9.66;100.00;101049.47;6006179;28;20038;-73
2023/03/20 00:20:17;;;;;;;12.67;6.23;;;;;;;9.64;100.00;101038.19;6005822;28;20467;-73
2023/03/20 00:23:13;;;;;;;12.85;6.38;;;;;;;9.66;100.00;101033.59;6005930;28;20471;-75
2023/03/20 00:26:12;;;;;;;12.60;6.47;;;;;;;9.75;100.00;101043.38;6006363;28;20042;-73
2023/03/20 00:29:19;;;;;;;15.90;7.13;;;;;;;9.73;100.00;101029.44;6006173;28;20468;-73
2023/03/20 00:32:14;;;;;;;15.52;7.00;;;;;;;9.57;100.00;101028.09;6004389;28;20034;-73
2023/03/20 00:35:22;;;;;;;17.40;6.88;;;;;;;9.49;100.00;101027.09;6005848;28;20042;-74
2023/03/20 00:38:18;;;;;;;15.55;7.28;;;;;;;9.38;100.00;101017.41;6005608;28;20039;-74
2023/03/20 00:41:25;;;;;;;15.47;7.33;;;;;;;9.38;100.00;101030.66;6005864;28;20053;-73
2023/03/20 00:44:24;;;;;;;16.15;7.05;;;;;;;9.40;100.00;101049.88;6003755;28;20079;-74
2023/03/20 00:47:23;;;;;;;16.95;8.43;;;;;;;9.28;100.00;101043.00;6015287;28;20537;-74
2023/03/20 00:50:22;;;;;;;19.83;8.63;;;;;;;9.32;100.00;101051.53;6005580;28;20101;-73
2023/03/20 00:53:17;;;;;;;20.58;9.50;;;;;;;9.40;100.00;101063.13;6004933;28;20035;-74
2023/03/20 00:56:28;;;;;;;16.90;8.00;;;;;;;9.30;100.00;101041.06;6004527;28;20478;-74
2023/03/20 00:59:26;;;;;;;21.17;8.35;;;;;;;9.49;100.00;101067.63;6005338;28;20046;-74
2023/03/20 01:02:23;;;;;;;22.05;9.35;;;;;;;9.44;100.00;101056.59;6004753;28;20106;-73
2023/03/20 01:05:18;;;;;;;22.10;9.57;;;;;;;9.42;100.00;101057.72;6020421;28;20031;-74
2023/03/20 01:08:19;;;;;;;22.83;10.90;;;;;;;9.42;100.00;101053.25;6005046;28;20111;-73
2023/03/20 01:11:21;;;;;;;26.52;11.45;;;;;;;9.40;100.00;101065.75;6005319;28;20041;-74
2023/03/20 01:14:16;;;;;;;30.48;13.00;;;;;;;9.27;100.00;101075.72;6004625;28;20035;-74
2023/03/20 01:17:20;;;;;;;29.90;12.27;;;;;;;9.13;100.00;101060.13;6005405;28;20031;-73
2023/03/20 01:20:27;;;;;;;36.25;13.57;;;;;;;9.10;100.00;101081.59;6004667;28;20051;-73
2023/03/20 01:23:23;;;;;;;37.08;14.18;;;;;;;8.98;100.00;101082.59;6004390;28;20454;-73
2023/03/20 01:26:35;;;;;;;30.38;13.90;;;;;;;8.73;100.00;101067.06;6004880;28;20035;-73
2023/03/20 01:29:31;;;;;;;38.00;13.82;;;;;;;8.72;100.00;101083.91;6020012;28;20035;-74
2023/03/20 01:32:26;;;;;;;36.83;16.07;;;;;;;8.62;100.00;101067.09;6004016;28;20034;-73
2023/03/20 01:35:25;;;;;;;40.07;15.23;;;;;;;8.55;100.00;101073.84;6003985;28;20055;-73
2023/03/20 01:38:23;;;;;;;44.50;15.27;;;;;;;8.58;100.00;101074.44;6003464;28;20280;-75
2023/03/20 01:41:19;;;;;;;42.90;14.60;;;;;;;8.56;100.00;101078.19;6019562;28;20398;-74
2023/03/20 01:44:21;;;;;;;40.70;15.70;;;;;;;8.62;100.00;101091.72;6018999;28;20033;-74
2023/03/20 01:47:20;;;;;;;45.80;15.27;;;;;;;8.54;100.00;101088.00;6004689;28;20031;-74
2023/03/20 01:50:30;;;;;;;49.45;15.80;;;;;;;8.53;100.00;101094.28;6004639;28;20455;-74
2023/03/20 01:53:27;;;;;;;46.78;16.38;;;;;;;8.54;100.00;101091.50;6003936;28;20034;-73
2023/03/20 01:56:23;;;;;;;47.80;15.65;;;;;;;8.62;100.00;101112.03;6004287;28;20367;-74
2023/03/20 01:59:23;;;;;;;49.10;16.67;;;;;;;8.52;100.00;101097.88;6003760;28;20045;-73
2023/03/20 02:02:21;;;;;;;51.22;17.45;;;;;;;8.59;100.00;101112.31;6003480;28;20031;-73
2023/03/20 02:05:19;;;;;;;45.03;16.83;;;;;;;8.54;100.00;101101.22;6003180;28;20478;-74
2023/03/20 02:08:30;;;;;;;48.63;17.13;;;;;;;8.55;100.00;101113.50;6003806;28;20089;-73
2023/03/20 02:11:26;;;;;;;44.72;16.35;;;;;;;8.49;100.00;101108.69;6002946;28;20035;-73
2023/03/20 02:14:21;;;;;;;50.10;16.10;;;;;;;8.58;100.00;101123.81;6001401;28;20490;-74
2023/03/20 02:17:16;;;;;;;53.28;17.92;;;;;;;8.46;100.00;101104.50;6002905;28;20105;-73
2023/03/20 02:20:16;;;;;;;54.93;18.37;;;;;;;8.55;100.00;101127.56;6003538;28;20046;-73
2023/03/20 02:23:30;;;;;;;51.45;17.42;;;;;;;8.56;100.00;101136.34;6002959;28;20027;-74
2023/03/20 02:26:59;;;;;;;54.10;17.63;;;;;;;8.46;100.00;101127.44;6002597;28;20037;-73
2023/03/20 02:30:11;;;;;;;54.25;16.67;;;;;;;8.52;100.00;101130.44;6018168;28;20065;-73
2023/03/20 02:33:21;;;;;;;50.55;17.83;;;;;;;8.53;100.00;101131.28;6002635;28;20035;-73
2023/03/20 02:36:29;;;;;;;50.63;16.65;;;;;;;8.56;100.00;101131.03;6003680;28;20050;-73
2023/03/20 02:39:29;;;;;;;45.30;17.90;;;;;;;8.50;100.00;101136.81;6003079;28;20038;-73
2023/03/20 02:42:30;;;;;;;56.95;17.55;;;;;;;8.49;100.00;101145.69;6002918;28;20433;-74
2023/03/20 02:45:28;;;;;;;50.60;16.63;;;;;;;8.49;100.00;101150.97;6018543;28;20042;-74
2023/03/20 02:48:39;;;;;;;56.95;18.23;;;;;;;8.48;100.00;101150.13;5989488;28;20035;-73
2023/03/20 02:52:14;;;;;;;62.38;19.10;;;;;;;8.48;100.00;101144.03;5995187;28;20047;-73
2023/03/20 02:55:12;;;;;;;55.75;17.38;;;;;;;8.48;100.00;101149.31;5992019;28;20042;-72
2023/03/20 02:58:20;;;;;;;67.75;19.25;;;;;;;8.32;100.00;101134.66;6003076;28;20066;-72
2023/03/20 03:01:32;;;;;;;53.05;17.25;;;;;;;8.44;100.00;101146.06;6001710;28;20077;-72
2023/03/20 03:04:32;;;;;;;50.20;15.30;;;;;;;8.42;100.00;101136.59;6001932;28;20066;-73
2023/03/20 03:07:31;;;;;;;41.45;13.57;;;;;;;8.32;100.00;101129.38;6002011;28;20045;-72
2023/03/20 03:10:33;;;;;;;41.55;13.13;;;;;;;8.26;100.00;101113.97;6001659;28;20054;-73
2023/03/20 03:13:31;;;;;;;35.40;11.80;;;;;;;8.43;100.00;101141.72;6000690;28;20073;-73
2023/03/20 03:16:29;;;;;;;34.83;11.43;;;;;;;8.30;100.00;101123.38;6003278;28;20035;-73
2023/03/20 03:19:26;;;;;;;36.65;10.13;;;;;;;8.28;100.00;101127.09;6001127;28;20031;-73
2023/03/20 03:22:23;;;;;;;35.17;11.52;;;;;;;8.31;100.00;101148.00;6002164;28;20031;-73
2023/03/20 03:25:20;;;;;;;30.95;10.00;;;;;;;8.20;100.00;101127.69;6017000;28;20396;-72
2023/03/20 03:28:46;;;;;;;30.77;9.90;;;;;;;8.48;100.00;101144.84;6017538;28;20062;-73
2023/03/20 03:31:43;;;;;;;28.45;9.27;;;;;;;8.47;100.00;101142.34;6011767;28;20441;-73
2023/03/20 03:34:38;;;;;;;29.88;8.60;;;;;;;8.51;100.00;101141.13;6016833;28;20038;-73
2023/03/20 03:37:49;;;;;;;31.37;10.27;;;;;;;8.45;100.00;101125.78;6002381;28;20050;-73
2023/03/20 03:41:14;;;;;;;28.23;9.55;;;;;;;8.45;100.00;101126.63;6002905;28;20038;-74
2023/03/20 03:44:26;;;;;;;24.35;9.50;;;;;;;8.45;100.00;101138.97;5998961;28;20134;-74
2023/03/20 03:47:24;;;;;;;29.30;8.88;;;;;;;8.27;100.00;101120.97;6017672;28;20035;-74
2023/03/20 03:50:35;;;;;;;24.75;9.20;;;;;;;8.28;100.00;101121.81;6001158;28;20035;-74
2023/03/20 03:53:34;;;;;;;22.77;8.25;;;;;;;8.23;100.00;101130.09;6000255;28;20039;-74
2023/03/20 03:56:31;;;;;;;26.02;8.45;;;;;;;8.25;100.00;101143.16;5982515;28;20124;-74
2023/03/20 03:59:34;;;;;;;23.02;8.30;;;;;;;8.14;100.00;101128.16;5997427;28;20093;-73
2023/03/20 04:02:29;;;;;;;26.27;8.18;;;;;;;8.17;100.00;101145.56;6001606;28;20030;-74
2023/03/20 04:05:30;;;;;;;21.77;7.82;;;;;;;8.13;100.00;101139.69;6001734;28;20122;-73
2023/03/20 04:08:25;;;;;;;25.40;8.63;;;;;;;8.00;100.00;101128.38;6016867;28;20166;-74
2023/03/20 04:11:27;;;;;;;25.48;8.52;;;;;;;7.95;100.00;101130.56;6001957;28;20038;-73
2023/03/20 04:14:23;;;;;;;22.52;8.63;;;;;;;7.99;100.00;101141.72;6000277;28;20039;-74
2023/03/20 04:17:18;;;;;;;24.47;8.97;;;;;;;7.89;100.00;101133.66;6001784;28;20034;-73
2023/03/20 04:20:15;;;;;;;30.70;8.13;;;;;;;7.82;100.00;101127.19;6002458;28;20407;-73
2023/03/20 04:23:12;;;;;;;24.90;9.15;;;;;;;7.80;100.00;101131.72;6000756;28;20027;-73
2023/03/20 04:26:07;;;;;;;25.48;8.60;;;;;;;7.72;100.00;101131.47;6001500;28;20045;-73
2023/03/20 04:29:03;;;;;;;20.40;7.90;;;;;;;7.66;100.00;101129.31;6002071;28;20047;-74
2023/03/20 04:31:58;;;;;;;21.95;8.07;;;;;;;7.70;100.00;101142.16;6001196;28;20475;-73
2023/03/20 04:34:54;;;;;;;20.88;7.90;;;;;;;7.69;100.00;101134.38;6001595;28;20056;-73
2023/03/20 04:37:49;;;;;;;24.20;8.30;;;;;;;7.77;100.00;101148.63;6004898;28;20549;-74
2023/03/20 04:40:46;;;;;;;23.38;8.50;;;;;;;7.78;100.00;101138.94;6005954;28;20054;-73
2023/03/20 04:43:41;;;;;;;27.35;8.38;;;;;;;7.82;100.00;101135.09;6005329;28;20038;-74
2023/03/20 04:46:36;;;;;;;20.17;7.43;;;;;;;7.90;100.00;101137.16;6005742;28;20054;-73
2023/03/20 04:49:32;;;;;;;24.47;7.53;;;;;;;7.96;100.00;101136.69;6005669;28;20027;-73
2023/03/20 04:52:27;;;;;;;26.17;8.80;;;;;;;7.89;100.00;101130.16;6005112;28;20031;-74
2023/03/20 04:55:23;;;;;;;29.17;9.53;;;;;;;7.87;100.00;101127.66;6005610;28;20281;-74
2023/03/20 04:58:18;;;;;;;26.10;8.68;;;;;;;7.91;100.00;101129.09;6005217;28;20083;-73
2023/03/20 05:01:13;;;;;;;25.23;9.35;;;;;;;7.71;100.00;101096.34;6005391;28;20471;-73
2023/03/20 05:04:09;;;;;;;27.53;10.50;;;;;;;7.74;100.00;101111.09;6004916;28;20119;-74
2023/03/20 05:07:04;;;;;;;30.90;9.43;;;;;;;7.87;100.00;101125.03;6005364;28;20030;-74
2023/03/20 05:10:00;;;;;;;27.42;10.70;;;;;;;7.93;100.00;101121.06;6005322;28;20378;-74
2023/03/20 05:12:55;;;;;;;28.13;10.20;;;;;;;7.95;100.00;101127.06;6005007;28;20034;-74
2023/03/20 05:15:50;;;;;;;33.45;11.00;;;;;;;7.87;100.00;101103.91;6005150;28;20031;-72
2023/03/20 05:18:46;;;;;;;30.27;10.83;;;;;;;7.98;100.00;101124.19;6004856;28;20035;-74
2023/03/20 05:21:41;;;;;;;31.10;10.90;;;;;;;7.95;100.00;101119.16;6005036;28;20537;-73
2023/03/20 05:24:36;;;;;;;27.23;9.50;;;;;;;7.95;100.00;101103.31;6004850;28;20039;-73
2023/03/20 05:27:32;;;;;;;32.67;9.37;;;;;;;8.06;100.00;101124.44;6004937;28;20133;-73
2023/03/20 05:30:27;;;;;;;30.90;10.77;;;;;;;8.09;100.00;101122.41;6004693;28;20030;-73
2023/03/20 05:33:22;;;;;;;34.83;10.17;;;;;;;8.07;100.00;101120.84;6004559;28;20175;-73
2023/03/20 05:36:18;;;;;;;25.47;8.80;;;;;;;7.97;100.00;101096.94;6004564;28;20788;-74
2023/03/20 05:39:13;;;;;;;28.80;9.97;;;;;;;8.09;100.00;101113.63;6004755;28;20045;-73
2023/03/20 05:42:08;;;;;;;28.73;9.90;;;;;;;8.09;100.00;101106.56;6003956;28;20027;-73
2023/03/20 05:45:05;;;;;;;26.80;9.07;;;;;;;8.22;100.00;101111.69;6004800;28;20042;-73
2023/03/20 05:48:00;;;;;;;27.70;9.18;;;;;;;8.31;100.00;101122.44;6003763;28;20027;-74
2023/03/20 05:50:55;;;;;;;27.93;10.27;;;;;;;8.28;100.00;101112.09;6004376;28;20050;-72
2023/03/20 05:53:51;;;;;;;25.43;9.07;;;;;;;8.33;100.00;101109.09;6003564;28;20039;-74
2023/03/20 05:56:46;;;;;;;26.47;8.80;;;;;;;8.49;100.00;101125.41;6004644;28;20082;-73
2023/03/20 05:59:41;;;;;;;25.40;8.73;;;;;;;8.43;100.00;101106.53;6004252;28;20123;-73
2023/03/20 06:02:37;;;;;;;28.23;9.53;;;;;;;8.47;100.00;101115.91;6003827;28;20479;-73
2023/03/20 06:05:33;;;;;;;27.30;9.93;;;;;;;8.53;100.00;101126.84;6004407;28;20301;-73
2023/03/20 06:08:29;;;;;;;25.55;9.57;;;;;;;8.56;100.00;101144.25;6003885;28;20031;-74
2023/03/20 06:11:25;;;;;;;27.30;9.75;;;;;;;8.55;100.00;101145.22;6003745;28;20050;-74
2023/03/20 06:14:20;;;;;;;30.92;9.93;;;;;;;8.51;100.00;101125.25;6003574;28;20400;-73
2023/03/20 06:17:15;;;;;;;29.05;9.82;;;;;;;8.50;100.00;101126.25;6004116;28;20367;-73
2023/03/20 06:20:11;;;;;;;27.33;9.07;;;;;;;8.71;100.00;101148.31;6004026;28;20553;-74
2023/03/20 06:23:06;;;;;;;24.15;8.55;;;;;;;8.61;100.00;101134.16;6003054;28;20262;-73
2023/03/20 06:26:26;;;;;;;24.65;9.60;;;;;;;8.75;100.00;101152.41;6002995;28;20054;-73
2023/03/20 06:29:30;;;;;;;28.65;9.68;;;;;;;8.72;100.00;101147.34;5999682;28;20059;-73
2023/03/20 06:32:43;;;;;;;25.85;9.48;;;;;;;8.74;100.00;101156.00;6002056;28;20043;-73
2023/03/20 06:35:40;;;;;;;25.27;10.05;;;;;;;8.80;100.00;101153.72;6001865;28;20483;-74
2023/03/20 06:38:45;;;;;;;26.98;10.05;;;;;;;8.81;100.00;101163.31;6003126;28;20046;-74
2023/03/20 06:42:11;;;;;;;29.45;9.18;;;;;;;8.78;100.00;101165.34;6003084;28;20120;-73
2023/03/20 06:45:21;;;;;;;34.33;11.00;;;;;;;8.79;100.00;101169.69;6002070;28;20058;-74
2023/03/20 06:48:20;;;;;;;25.70;9.45;;;;;;;8.78;100.00;101157.41;6003123;28;20035;-74
2023/03/20 06:51:18;;;;;;;34.45;10.73;;;;;;;8.82;100.00;101157.06;6001791;28;20046;-74
2023/03/20 06:54:13;;;;;;;37.42;10.55;;;;;;;8.91;100.00;101163.41;6001068;28;20065;-74
2023/03/20 06:57:09;;;;;;;25.63;9.52;;;;;;;8.86;100.00;101161.13;6002842;28;20035;-74
2023/03/20 07:00:05;;;;;;;28.40;9.95;;;;;;;8.86;99.74;101155.84;6001883;28;20046;-72
2023/03/20 07:03:01;;;;;;;36.00;11.82;;;;;;;8.85;99.42;101150.69;6000433;28;20053;-73
2023/03/20 07:05:56;;;;;;;34.13;10.98;;;;;;;8.99;99.64;101167.09;6002933;28;20475;-73
2023/03/20 07:08:51;;;;;;;33.95;11.65;;;;;;;8.96;99.21;101167.38;6002724;28;20073;-74
2023/03/20 07:11:47;;;;;;;29.70;10.87;;;;;;;8.93;99.25;101170.25;6002441;28;20053;-73
2023/03/20 07:14:42;;;;;;;33.65;11.32;;;;;;;9.01;99.35;101177.56;6001361;28;20045;-72
2023/03/20 07:17:38;;;;;;;31.83;10.17;;;;;;;8.96;99.54;101163.88;5990396;28;20034;-73
2023/03/20 07:20:33;;;;;;;34.53;10.87;;;;;;;9.02;99.59;101176.63;6002189;28;20045;-73
2023/03/20 07:23:29;;;;;;;31.63;12.30;;;;;;;9.08;99.19;101189.31;6001886;28;20498;-73
2023/03/20 07:26:24;;;;;;;31.90;11.57;;;;;;;9.07;99.01;101177.06;6002583;28;20042;-74
2023/03/20 07:29:20;;;;;;;35.93;11.23;;;;;;;9.08;98.42;101183.22;6001373;28;20043;-73
2023/03/20 07:32:15;;;;;;;33.70;11.73;;;;;;;9.05;98.88;101197.50;6002143;28;20045;-72
2023/03/20 07:35:12;;;;;;;32.22;10.57;;;;;;;9.06;99.46;101193.91;6002009;28;20289;-73
2023/03/20 07:38:07;;;;;;;32.22;12.25;;;;;;;8.92;99.34;101171.22;6001257;28;20034;-74
2023/03/20 07:41:02;;;;;;;35.93;11.57;;;;;;;8.90;100.00;101174.94;6002258;28;20250;-73
2023/03/20 07:43:58;;;;;;;36.20;11.50;;;;;;;8.93;99.44;101182.63;6001739;28;20274;-73
2023/03/20 07:46:53;;;;;;;33.10;11.70;;;;;;;8.83;99.31;101177.22;6002597;28;20286;-73
2023/03/20 07:49:48;;;;;;;31.90;11.73;;;;;;;8.88;99.47;101184.81;6002355;28;20038;-74
2023/03/20 07:52:47;;;;;;;37.00;12.00;;;;;;;8.97;99.12;101194.63;6001931;28;20034;-72
2023/03/20 07:55:43;;;;;;;31.10;11.23;;;;;;;9.09;98.96;101188.38;5999587;28;20033;-73
2023/03/20 07:58:39;;;;;;;32.75;12.23;;;;;;;9.16;98.07;101194.00;6002285;28;20039;-71
2023/03/20 08:01:34;;;;;;;30.70;11.40;;;;;;;9.05;97.32;101192.22;6002482;28;20053;-74
2023/03/20 08:04:29;;;;;;;32.07;11.87;;;;;;;9.01;97.43;101169.63;6001493;28;20038;-75
2023/03/20 08:07:25;;;;;;;30.13;11.02;;;;;;;9.12;96.75;101184.63;6002462;28;20066;-73
2023/03/20 08:10:20;;;;;;;37.00;12.40;;;;;;;9.10;96.32;101200.63;6002398;28;20067;-73
2023/03/20 08:13:15;;;;;;;30.40;11.48;;;;;;;9.10;95.90;101182.13;6003378;28;20045;-74
2023/03/20 08:16:11;;;;;;;34.27;11.13;;;;;;;9.22;95.58;101198.78;6005614;28;20039;-74
2023/03/20 08:19:06;;;;;;;27.33;11.32;;;;;;;9.30;95.38;101202.47;6005576;28;20106;-73
2023/03/20 08:22:02;;;;;;;26.05;9.68;;;;;;;9.42;94.57;101185.59;6005406;28;20062;-73
2023/03/20 08:24:57;;;;;;;27.00;10.07;;;;;;;9.63;93.44;101208.59;6005848;28;20058;-74
2023/03/20 08:27:52;;;;;;;29.07;10.43;;;;;;;9.70;92.61;101212.44;6006103;28;20277;-74
2023/03/20 08:30:48;;;;;;;28.47;10.83;;;;;;;9.71;92.29;101207.00;6006455;28;20062;-73
2023/03/20 08:33:45;;;;;;;30.83;11.55;;;;;;;9.55;91.85;101183.59;6000745;28;20039;-74
2023/03/20 08:36:41;;;;;;;25.17;10.65;;;;;;;9.66;91.41;101203.03;6006294;28;20489;-74
2023/03/20 08:39:38;;;;;;;24.83;9.67;;;;;;;9.61;91.96;101215.84;6006234;28;20027;-74
2023/03/20 08:42:33;;;;;;;26.70;9.85;;;;;;;9.51;91.82;101187.47;6004302;28;20113;-71
2023/03/20 08:45:29;;;;;;;28.03;9.73;;;;;;;9.56;92.24;101211.78;6005986;28;20045;-74
2023/03/20 08:48:25;;;;;;;23.50;10.60;;;;;;;9.49;92.01;101218.53;6003954;28;20037;-72
2023/03/20 08:51:20;;;;;;;28.05;10.07;;;;;;;9.32;93.05;101203.19;6021096;28;20045;-71
2023/03/20 08:54:17;;;;;;;28.50;9.63;;;;;;;9.41;92.46;101210.38;6005187;28;20053;-72
2023/03/20 08:57:12;;;;;;;26.60;10.00;;;;;;;9.41;92.31;101209.53;6002757;28;20034;-74
2023/03/20 09:00:11;;;;;;;22.87;9.13;;;;;;;9.37;91.82;101214.25;6020675;28;20031;-72
2023/03/20 09:03:10;;;;;;;22.38;7.80;;;;;;;9.37;90.89;101222.19;6002036;28;20463;-74
2023/03/20 09:06:07;;;;;;;25.45;9.90;;;;;;;9.22;91.51;101204.06;6005751;28;20038;-75
2023/03/20 09:09:03;;;;;;;25.70;9.07;;;;;;;9.42;91.79;101214.72;6004872;28;20026;-74
2023/03/20 09:11:59;;;;;;;19.02;8.60;;;;;;;9.36;89.62;101217.84;6001493;28;20505;-72
2023/03/20 09:14:54;;;;;;;18.88;7.80;;;;;;;9.43;89.13;101218.22;6004337;28;20049;-72
2023/03/20 09:17:49;;;;;;;18.57;7.77;;;;;;;9.44;89.62;101218.06;6005366;28;20035;-74
2023/03/20 09:20:46;;;;;;;19.80;7.73;;;;;;;9.70;89.39;101230.97;6004902;28;20462;-72
2023/03/20 09:23:41;;;;;;;15.52;7.07;;;;;;;9.66;88.50;101230.38;6002168;28;20030;-75
2023/03/20 09:26:37;;;;;;;18.33;7.37;;;;;;;9.56;88.13;101232.97;6005030;28;20041;-72
2023/03/20 09:29:33;;;;;;;17.98;7.78;;;;;;;9.54;88.08;101228.72;6002158;28;20316;-72
2023/03/20 09:32:28;;;;;;;21.07;7.97;;;;;;;9.46;87.50;101223.22;6004218;28;20038;-72
2023/03/20 09:35:24;;;;;;;19.98;7.20;;;;;;;9.60;86.37;101238.81;6004661;28;20030;-72
2023/03/20 09:38:20;;;;;;;16.73;7.77;;;;;;;9.72;85.95;101244.91;6003345;28;20038;-72
2023/03/20 09:41:20;;;;;;;18.55;6.85;;;;;;;9.69;85.83;101240.72;6004784;28;20039;-72
2023/03/20 09:44:45;;;;;;;17.92;6.63;;;;;;;9.94;85.11;101234.22;6003481;28;20031;-72
2023/03/20 09:47:58;;;;;;;16.70;6.57;;;;;;;10.07;83.96;101224.25;6002488;28;20117;-72
2023/03/20 09:51:15;;;;;;;;;;;;;;;10.12;83.24;101232.66;6004125;28;20121;-72
2023/03/20 09:54:21;;;;;;;16.13;6.80;;;;;;;10.06;83.29;101227.84;6002656;28;19921;-71
2023/03/20 09:57:22;;;;;;;17.13;7.15;;;;;;;10.05;82.05;101223.56;6003240;28;20101;-72
2023/03/20 10:00:23;;;;;;;15.75;6.82;;;;;;;10.03;82.31;101250.16;6003465;28;20034;-72
2023/03/20 10:03:22;;;;;;;19.48;7.32;;;;;;;9.90;82.57;101243.38;6002956;28;20043;-72
2023/03/20 10:06:17;;;;;;;19.45;7.20;;;;;;;9.93;82.91;101248.41;6004314;28;20061;-75
2023/03/20 10:09:16;;;;;;;17.53;7.53;;;;;;;9.75;83.10;101248.16;6004097;28;20414;-72
2023/03/20 10:12:32;;;;;;;16.25;7.25;;;;;;;9.63;83.92;101233.28;6002447;28;20031;-73
2023/03/20 10:15:48;;;;;;;18.77;7.28;;;;;;;9.66;83.46;101245.41;6002785;28;20110;-74
2023/03/20 10:18:52;;;;;;;16.85;7.22;;;;;;;9.75;83.92;101247.31;6002716;28;20475;-74
2023/03/20 10:22:03;;;;;;;17.88;7.97;;;;;;;9.89;83.76;101244.34;5996474;28;20118;-74
2023/03/20 10:25:39;;;;;;;16.85;7.28;;;;;;;9.92;82.12;101244.09;5990013;28;20133;-74
2023/03/20 10:28:46;;;;;;;17.80;7.10;;;;;;;10.00;81.11;101242.47;5982246;28;20388;-73
2023/03/20 10:32:02;;;;;;;19.25;7.72;;;;;;;10.13;81.35;101250.28;5996943;28;20038;-74
2023/03/20 10:35:23;;;;;;;19.25;8.77;;;;;;;10.30;80.55;101244.34;6003123;28;20054;-74
2023/03/20 10:38:40;;;;;;;18.48;7.95;;;;;;;10.17;80.54;101241.06;6003822;28;20046;-74
2023/03/20 10:41:38;;;;;;;18.05;7.82;;;;;;;10.18;80.84;101232.16;6003364;28;20026;-72
2023/03/20 10:44:39;;;;;;;17.52;7.50;;;;;;;10.34;80.39;101221.06;6001518;28;20469;-74
2023/03/20 10:47:38;;;;;;;19.67;8.05;;;;;;;10.54;78.86;101229.00;6001712;28;20474;-71
2023/03/20 10:50:45;;;;;;;14.82;7.10;;;;;;;10.70;78.76;101225.84;6002306;28;20131;-72
2023/03/20 10:54:00;;;;;;;19.60;8.13;;;;;;;10.66;77.77;101232.38;6001562;28;20027;-74
2023/03/20 10:56:58;;;;;;;17.45;7.30;;;;;;;10.63;77.65;101225.53;6003176;28;20462;-74
2023/03/20 10:59:55;;;;;;;18.17;7.55;;;;;;;10.46;77.74;101220.84;6002019;28;20039;-74
2023/03/20 11:02:51;;;;;;;16.27;6.82;;;;;;;10.55;77.15;101227.16;6002512;28;20031;-73
2023/03/20 11:05:50;;;;;;;15.30;6.43;;;;;;;10.48;76.18;101229.53;6002633;28;20037;-74
2023/03/20 11:08:49;;;;;;;16.40;6.82;;;;;;;10.33;76.78;101225.53;6001099;28;20154;-73
2023/03/20 11:11:46;;;;;;;15.20;7.00;;;;;;;10.22;78.09;101227.44;6001846;28;20031;-73
2023/03/20 11:14:41;;;;;;;17.92;7.68;;;;;;;10.23;77.20;101214.06;6002228;28;20045;-71
2023/03/20 11:17:36;;;;;;;16.33;7.03;;;;;;;10.22;76.96;101195.66;6000020;28;20035;-73
2023/03/20 11:20:45;;;;;;;20.03;8.77;;;;;;;10.40;77.30;101212.59;6001519;28;20041;-73
2023/03/20 11:23:40;;;;;;;22.13;9.13;;;;;;;10.65;77.31;101199.72;6001845;28;20027;-74
2023/03/20 11:26:38;;;;;;;17.20;7.90;;;;;;;11.07;75.82;101207.50;6002753;28;20453;-74
2023/03/20 11:29:34;;;;;;;17.40;8.20;;;;;;;11.23;73.51;101198.03;6002724;28;20270;-73
2023/03/20 11:32:34;;;;;;;19.35;8.32;;;;;;;11.12;73.95;101192.00;6001606;28;20033;-74
2023/03/20 11:35:30;;;;;;;18.15;8.25;;;;;;;11.08;74.23;101203.88;6001267;28;20034;-73
2023/03/20 11:38:29;;;;;;;17.77;7.65;;;;;;;11.05;74.25;101174.97;6002252;28;20042;-74
2023/03/20 11:41:26;;;;;;;12.82;6.35;;;;;;;10.93;71.91;101179.53;6001096;28;20031;-73
2023/03/20 11:44:29;;;;;;;10.05;5.03;;;;;;;10.91;70.87;101188.63;6000692;28;20031;-73
2023/03/20 11:47:26;;;;;;;15.63;5.93;;;;;;;10.70;71.27;101186.06;6004890;28;20497;-73
2023/03/20 11:50:36;;;;;;;12.13;5.63;;;;;;;10.70;71.33;101175.47;6006819;28;20430;-73
2023/03/20 11:53:38;;;;;;;12.25;6.13;;;;;;;10.73;71.26;101186.63;6006072;28;20113;-73
2023/03/20 11:56:34;;;;;;;13.30;6.60;;;;;;;10.67;70.57;101171.25;6007093;28;20039;-73
2023/03/20 11:59:34;;;;;;;10.75;5.50;;;;;;;10.64;70.36;101157.44;6006741;28;20386;-72
2023/03/20 12:02:30;;;;;;;11.70;6.13;;;;;;;10.71;70.23;101177.13;6005742;28;20041;-72
2023/03/20 12:05:34;;;;;;;9.20;5.20;;;;;;;10.74;70.78;101169.72;6006747;28;20035;-72
2023/03/20 12:08:31;;;;;;;12.70;5.78;;;;;;;10.71;70.59;101166.50;5996904;28;20038;-73
2023/03/20 12:12:07;;;;;;;12.27;6.40;;;;;;;10.92;70.75;101166.44;6007135;28;20031;-73
2023/03/20 12:15:12;;;;;;;11.95;5.63;;;;;;;10.85;70.63;101165.28;6000092;28;20074;-73
2023/03/20 12:18:27;;;;;;;11.05;5.55;;;;;;;10.79;68.94;101161.34;6005923;28;20039;-73
2023/03/20 12:21:27;;;;;;;10.48;5.57;;;;;;;10.70;67.74;101141.81;6004999;28;20097;-73
2023/03/20 12:24:52;;;;;;;11.45;5.82;;;;;;;10.90;68.09;101144.50;6006175;28;20394;-73
2023/03/20 12:27:55;;;;;;;9.23;5.45;;;;;;;10.98;67.63;101152.63;5994158;28;20066;-73
2023/03/20 12:31:00;;;;;;;12.20;6.03;;;;;;;11.10;68.85;101151.50;6015923;28;20023;-73
2023/03/20 12:34:17;;;;;;;12.32;6.28;;;;;;;11.11;67.39;101159.34;6005645;28;20031;-73
2023/03/20 12:37:13;;;;;;;14.23;7.03;;;;;;;10.90;67.16;101149.81;6004741;28;20027;-73
2023/03/20 12:40:14;;;;;;;12.23;6.88;;;;;;;10.96;67.72;101154.56;6004928;28;20114;-73
2023/03/20 12:43:14;;;;;;;12.82;6.50;;;;;;;10.85;67.34;101162.63;6005385;28;20034;-73
2023/03/20 12:46:28;;;;;;;10.55;5.65;;;;;;;11.33;67.19;101163.53;6006161;28;20050;-73
2023/03/20 12:49:50;;;;;;;10.10;5.47;;;;;;;11.68;63.80;101161.13;6006143;28;20038;-73
2023/03/20 12:52:52;;;;;;;13.95;5.38;;;;;;;11.69;61.07;101138.91;6005252;28;20042;-73
2023/03/20 12:56:06;;;;;;;10.98;5.32;;;;;;;11.45;61.93;101162.41;6006024;28;20031;-73
2023/03/20 12:59:43;;;;;;;12.00;6.20;;;;;;;11.22;63.66;101140.59;6005569;28;20038;-73
2023/03/20 13:02:48;;;;;;;11.88;5.78;;;;;;;11.20;62.81;101144.38;6003657;28;20058;-73
2023/03/20 13:06:12;;;;;;;9.88;5.88;;;;;;;11.14;62.69;101126.38;6004756;28;20031;-73
2023/03/20 13:09:25;;;;;;;11.32;5.68;;;;;;;11.33;61.38;101137.81;6005340;28;20125;-72
2023/03/20 13:12:23;;;;;;;;;;;;;;;11.07;61.20;101138.50;6005226;28;20644;-73
2023/03/20 13:15:41;;;;;;;9.13;5.07;;;;;;;11.17;61.90;101132.22;6004191;28;19921;-73
2023/03/20 13:19:06;;;;;;;10.35;5.80;;;;;;;11.32;62.49;101135.31;6005549;28;20039;-72
2023/03/20 13:22:07;;;;;;;12.30;5.93;;;;;;;11.53;61.10;101128.00;6019484;28;20038;-73
2023/03/20 13:25:17;;;;;;;12.48;6.57;;;;;;;11.45;61.56;101130.53;6003761;28;20058;-72
2023/03/20 13:28:24;;;;;;;11.05;6.20;;;;;;;11.33;62.40;101131.69;6003795;28;20037;-73
2023/03/20 13:31:44;;;;;;;12.35;6.30;;;;;;;11.44;61.39;101139.47;6004038;28;20447;-72
2023/03/20 13:35:01;;;;;;;12.55;7.07;;;;;;;11.52;60.79;101117.53;6004708;28;20122;-73
2023/03/20 13:38:21;;;;;;;9.88;6.90;;;;;;;11.53;59.86;101106.75;6004368;28;20039;-73
2023/03/20 13:41:17;;;;;;;14.30;6.78;;;;;;;11.38;58.45;101107.34;6004353;28;20394;-73
2023/03/20 13:44:14;;;;;;;11.63;7.10;;;;;;;11.47;58.46;101128.56;6004019;28;20046;-72
2023/03/20 13:47:12;;;;;;;10.95;6.78;;;;;;;11.45;59.55;101113.75;6005346;28;20031;-72
2023/03/20 13:50:47;;;;;;;12.93;7.50;;;;;;;11.41;59.18;101115.88;6003663;28;20031;-72
2023/03/20 13:54:03;;;;;;;12.48;7.13;;;;;;;11.41;60.05;101105.25;5991892;28;20070;-72